Time;durP1;ratioP1;P1;durP2;ratioP2;P2;SDS_P1;SDS_P2;PMS_P1;PMS_P2;Temp;Humidity;BMP_temperature;BMP_pressure;BME280_temperature;BME280_humidity;BME280_pressure;Samples;Min_cycle;Max_cycle;Signal;HPM_P1;HPM_P2
2022/08/16 00:00:36;;;;;;;19.77;18.23;;;21.10;99.90;;;;;;5034687;28;20564;-75
2022/08/16 00:03:02;;;;;;;22.73;20.45;;;21.10;99.90;;;;;;5016816;28;20600;-75
2022/08/16 00:05:29;;;;;;;21.05;19.00;;;21.10;99.90;;;;;;5016851;28;20053;-74
2022/08/16 00:07:57;;;;;;;20.75;18.83;;;21.10;99.90;;;;;;5003803;28;20072;-74
2022/08/16 00:10:25;;;;;;;21.15;19.27;;;21.10;99.90;;;;;;5035114;28;20045;-74
2022/08/16 00:12:55;;;;;;;20.83;18.83;;;21.10;99.90;;;;;;5045376;28;20053;-76
2022/08/16 00:15:29;;;;;;;21.55;19.45;;;21.10;99.90;;;;;;5037945;28;20068;-75
2022/08/16 00:17:55;;;;;;;21.83;19.73;;;21.00;99.90;;;;;;5037702;28;20052;-76
2022/08/16 00:20:22;;;;;;;21.27;19.33;;;21.00;99.90;;;;;;5026059;28;20041;-75
2022/08/16 00:22:49;;;;;;;22.67;20.55;;;21.00;99.90;;;;;;5051635;28;20103;-74
2022/08/16 00:25:22;;;;;;;21.33;19.38;;;21.00;99.90;;;;;;5020340;28;20258;-76
2022/08/16 00:27:48;;;;;;;20.75;18.85;;;21.00;99.90;;;;;;5047098;28;20079;-75
2022/08/16 00:30:15;;;;;;;21.20;19.35;;;20.90;99.90;;;;;;5040867;28;20102;-75
2022/08/16 00:32:44;;;;;;;20.48;18.73;;;20.90;99.90;;;;;;5018642;28;20159;-75
2022/08/16 00:35:15;;;;;;;20.63;18.20;;;20.90;99.90;;;;;;4979164;28;20036;-77
2022/08/16 00:37:44;;;;;;;21.67;19.90;;;20.90;99.90;;;;;;5018429;28;20052;-75
2022/08/16 00:40:13;;;;;;;20.88;18.88;;;20.80;99.90;;;;;;5005688;28;20302;-77
2022/08/16 00:42:39;;;;;;;22.38;20.40;;;20.90;99.90;;;;;;5004356;28;20060;-75
2022/08/16 00:45:31;;;;;;;22.33;20.33;;;20.90;99.90;;;;;;4985829;28;20049;-75
2022/08/16 00:47:58;;;;;;;23.15;21.10;;;20.90;99.90;;;;;;5040783;28;20041;-76
2022/08/16 00:50:30;;;;;;;22.20;20.15;;;20.80;99.90;;;;;;5021683;28;20045;-76
2022/08/16 00:52:57;;;;;;;23.92;21.60;;;20.80;99.90;;;;;;5035131;28;20120;-76
2022/08/16 00:55:24;;;;;;;23.27;21.17;;;20.70;99.90;;;;;;5020046;28;20126;-76
2022/08/16 00:57:54;;;;;;;24.55;22.50;;;20.80;99.90;;;;;;5002850;28;20518;-75
2022/08/16 01:00:23;;;;;;;23.75;21.73;;;20.70;99.90;;;;;;5018047;28;20047;-75
2022/08/16 01:02:50;;;;;;;24.75;22.58;;;20.80;99.90;;;;;;5018522;28;20053;-76
2022/08/16 01:05:16;;;;;;;24.58;22.42;;;20.80;99.90;;;;;;4982671;28;20068;-75
2022/08/16 01:07:43;;;;;;;25.27;22.95;;;20.70;99.90;;;;;;5014541;28;20052;-75
2022/08/16 01:10:10;;;;;;;23.60;21.70;;;20.70;99.90;;;;;;5000861;28;20674;-75
2022/08/16 01:12:36;;;;;;;24.90;22.63;;;20.70;99.90;;;;;;5018348;28;20550;-75
2022/08/16 01:15:06;;;;;;;26.15;24.08;;;20.70;99.90;;;;;;5008771;28;20052;-75
2022/08/16 01:17:34;;;;;;;26.60;24.27;;;20.70;99.90;;;;;;4998761;28;20073;-76
2022/08/16 01:20:05;;;;;;;27.15;24.88;;;20.70;99.90;;;;;;5005574;28;20610;-76
2022/08/16 01:22:54;;;;;;;27.65;25.35;;;20.70;99.90;;;;;;5017538;28;20049;-75
2022/08/16 01:25:32;;;;;;;27.67;25.35;;;20.70;99.90;;;;;;4985535;28;20528;-73
2022/08/16 01:28:02;;;;;;;27.42;25.02;;;20.70;99.90;;;;;;5008388;28;20103;-75
2022/08/16 01:30:38;;;;;;;27.75;25.25;;;20.70;99.90;;;;;;5017927;28;20099;-75
2022/08/16 01:33:05;;;;;;;27.83;25.48;;;20.60;99.90;;;;;;5017838;28;20568;-76
2022/08/16 01:35:46;;;;;;;27.40;24.92;;;20.70;99.90;;;;;;5013764;28;20049;-75
2022/08/16 01:38:19;;;;;;;27.17;24.85;;;20.60;99.90;;;;;;5016148;28;20041;-74
2022/08/16 01:40:47;;;;;;;26.20;24.13;;;20.60;99.90;;;;;;5011064;28;20489;-75
2022/08/16 01:43:14;;;;;;;26.98;24.65;;;20.50;99.90;;;;;;4986133;28;20405;-75
2022/08/16 01:45:43;;;;;;;25.55;23.33;;;20.50;99.90;;;;;;5036298;28;20056;-74
2022/08/16 01:48:13;;;;;;;27.98;25.35;;;20.50;99.90;;;;;;5000767;28;20049;-74
2022/08/16 01:50:43;;;;;;;26.15;23.83;;;20.40;99.90;;;;;;5031517;28;20132;-74
2022/08/16 01:53:09;;;;;;;26.13;23.92;;;20.30;99.90;;;;;;5022778;28;20675;-74
2022/08/16 01:56:00;;;;;;;28.42;25.77;;;20.30;99.90;;;;;;5031447;28;20063;-75
2022/08/16 01:58:28;;;;;;;26.50;24.40;;;20.30;99.90;;;;;;4988638;28;20079;-75
2022/08/16 02:00:54;;;;;;;28.90;26.42;;;20.30;99.90;;;;;;5016037;28;20128;-74
2022/08/16 02:03:21;;;;;;;26.52;24.00;;;20.20;99.90;;;;;;5023452;28;20079;-75
2022/08/16 02:05:47;;;;;;;28.80;26.27;;;20.20;99.90;;;;;;4994868;28;20491;-75
2022/08/16 02:08:14;;;;;;;28.58;26.08;;;20.20;99.90;;;;;;4986142;28;20473;-76
2022/08/16 02:10:40;;;;;;;26.73;24.45;;;20.10;99.90;;;;;;5000906;28;20041;-74
2022/08/16 02:13:07;;;;;;;29.17;26.63;;;20.10;99.90;;;;;;4994336;28;20052;-74
2022/08/16 02:15:36;;;;;;;28.35;25.88;;;20.10;99.90;;;;;;4987822;28;20682;-74
2022/08/16 02:18:03;;;;;;;28.88;26.23;;;20.00;99.90;;;;;;5025325;28;20087;-74
2022/08/16 02:20:37;;;;;;;27.67;25.13;;;19.90;99.90;;;;;;5002206;28;20048;-76
2022/08/16 02:23:05;;;;;;;28.10;25.75;;;19.80;99.90;;;;;;5036920;28;20125;-75
2022/08/16 02:25:31;;;;;;;26.55;24.15;;;19.80;99.90;;;;;;5017849;28;20476;-75
2022/08/16 02:27:58;;;;;;;27.25;25.00;;;19.70;99.90;;;;;;5003799;28;20051;-75
2022/08/16 02:30:26;;;;;;;30.20;27.73;;;19.70;99.90;;;;;;5017778;28;20129;-75
2022/08/16 02:32:53;;;;;;;28.42;26.02;;;19.60;99.90;;;;;;5033399;28;20110;-75
2022/08/16 02:35:21;;;;;;;32.20;29.55;;;19.60;99.90;;;;;;4996316;28;20064;-75
2022/08/16 02:37:47;;;;;;;28.73;26.23;;;19.60;99.90;;;;;;5007144;28;20036;-75
2022/08/16 02:40:17;;;;;;;29.55;27.17;;;19.60;99.90;;;;;;4993962;28;20394;-75
2022/08/16 02:42:46;;;;;;;29.30;26.65;;;19.60;99.90;;;;;;5021153;28;20048;-75
2022/08/16 02:45:14;;;;;;;29.00;26.60;;;19.60;99.90;;;;;;5010423;28;20167;-75
2022/08/16 02:47:40;;;;;;;27.77;25.38;;;19.60;99.90;;;;;;5033621;28;20044;-75
2022/08/16 02:50:08;;;;;;;29.13;26.48;;;19.60;99.90;;;;;;5051769;28;20139;-75
2022/08/16 02:52:35;;;;;;;29.38;26.83;;;19.60;99.90;;;;;;5018577;28;20041;-76
2022/08/16 02:55:05;;;;;;;27.75;25.40;;;19.60;99.90;;;;;;5006068;28;20421;-75
2022/08/16 02:57:32;;;;;;;30.15;27.27;;;19.50;99.90;;;;;;5034182;28;20053;-75
2022/08/16 02:59:59;;;;;;;29.85;26.92;;;19.50;99.90;;;;;;4994756;28;20076;-75
2022/08/16 03:02:25;;;;;;;27.80;25.27;;;19.50;99.90;;;;;;4981296;28;20041;-75
2022/08/16 03:04:52;;;;;;;29.02;26.48;;;19.40;99.90;;;;;;5025559;28;20067;-75
2022/08/16 03:07:20;;;;;;;30.30;27.63;;;19.40;99.90;;;;;;5026291;28;20120;-76
2022/08/16 03:09:49;;;;;;;29.42;26.58;;;19.30;99.90;;;;;;5029091;28;20063;-75
2022/08/16 03:12:19;;;;;;;30.48;27.73;;;19.30;99.90;;;;;;4988780;28;20170;-75
2022/08/16 03:14:47;;;;;;;32.45;29.38;;;19.20;99.90;;;;;;5005846;28;20048;-75
2022/08/16 03:17:15;;;;;;;30.05;27.45;;;19.10;99.90;;;;;;5019330;28;20495;-75
2022/08/16 03:19:42;;;;;;;31.15;28.50;;;19.10;99.90;;;;;;5003280;28;20048;-75
2022/08/16 03:22:09;;;;;;;31.80;29.05;;;19.10;99.90;;;;;;5038754;28;20049;-75
2022/08/16 03:24:36;;;;;;;31.13;27.92;;;19.00;99.90;;;;;;5027839;28;20041;-76
2022/08/16 03:27:03;;;;;;;33.05;30.13;;;19.00;99.90;;;;;;4996768;28;20081;-75
2022/08/16 03:29:32;;;;;;;32.22;29.42;;;18.90;99.90;;;;;;4988940;28;20042;-75
2022/08/16 03:32:01;;;;;;;32.45;29.75;;;18.80;99.90;;;;;;5017656;28;20052;-75
2022/08/16 03:34:28;;;;;;;32.80;29.63;;;18.80;99.90;;;;;;5015873;28;20126;-75
2022/08/16 03:36:54;;;;;;;32.20;29.17;;;18.70;99.90;;;;;;4989739;28;20037;-75
2022/08/16 03:39:21;;;;;;;30.25;27.85;;;18.70;99.90;;;;;;4996902;28;20444;-75
2022/08/16 03:41:48;;;;;;;31.02;28.35;;;18.60;99.90;;;;;;5035692;28;20097;-75
2022/08/16 03:44:15;;;;;;;30.10;27.40;;;18.60;99.90;;;;;;5007663;28;20045;-74
2022/08/16 03:46:42;;;;;;;31.40;28.73;;;18.50;99.90;;;;;;5021317;28;20523;-75
2022/08/16 03:49:10;;;;;;;32.95;30.25;;;18.50;99.90;;;;;;4994758;28;20561;-75
2022/08/16 03:51:38;;;;;;;32.67;29.77;;;18.40;99.90;;;;;;4998298;28;20595;-75
2022/08/16 03:54:06;;;;;;;32.47;29.30;;;18.40;99.90;;;;;;5006360;28;20041;-75
2022/08/16 03:56:32;;;;;;;33.25;30.20;;;18.40;99.90;;;;;;5012736;28;20060;-75
2022/08/16 03:59:00;;;;;;;33.38;30.25;;;18.30;99.90;;;;;;5013836;28;20076;-74
2022/08/16 04:01:32;;;;;;;32.85;30.02;;;18.20;99.90;;;;;;5010989;28;20037;-74
2022/08/16 04:03:59;;;;;;;31.42;28.55;;;18.30;99.90;;;;;;5003689;28;20045;-74
2022/08/16 04:06:26;;;;;;;34.25;31.20;;;18.20;99.90;;;;;;5000152;28;20076;-75
2022/08/16 04:08:52;;;;;;;34.17;30.98;;;18.10;99.90;;;;;;4986905;28;20052;-74
2022/08/16 04:11:18;;;;;;;32.95;30.00;;;18.10;99.90;;;;;;4981099;28;20084;-75
2022/08/16 04:13:46;;;;;;;33.83;30.90;;;18.10;99.90;;;;;;5002461;28;20523;-75
2022/08/16 04:16:16;;;;;;;32.35;29.58;;;18.10;99.90;;;;;;5028181;28;20044;-75
2022/08/16 04:18:43;;;;;;;31.45;28.65;;;18.10;99.90;;;;;;5018554;28;20152;-76
2022/08/16 04:21:10;;;;;;;32.22;29.35;;;18.10;99.90;;;;;;4986582;28;20068;-75
2022/08/16 04:23:37;;;;;;;32.10;29.13;;;18.10;99.90;;;;;;5037003;28;20049;-75
2022/08/16 04:26:05;;;;;;;33.45;30.25;;;18.00;99.90;;;;;;5002878;28;20534;-75
2022/08/16 04:28:34;;;;;;;33.15;29.88;;;18.10;99.90;;;;;;5016374;28;20049;-75
2022/08/16 04:31:00;;;;;;;33.15;30.25;;;18.00;99.90;;;;;;5025030;28;20063;-75
2022/08/16 04:33:28;;;;;;;34.45;31.33;;;18.00;99.90;;;;;;5002554;28;20150;-75
2022/08/16 04:35:58;;;;;;;31.05;28.33;;;18.00;99.90;;;;;;5001337;28;20049;-75
2022/08/16 04:38:24;;;;;;;31.92;28.90;;;18.10;99.90;;;;;;4989492;28;20079;-75
2022/08/16 04:40:52;;;;;;;32.80;29.77;;;18.00;99.90;;;;;;5002659;28;20037;-75
2022/08/16 04:43:18;;;;;;;33.50;30.20;;;18.10;99.90;;;;;;5001638;28;20099;-75
2022/08/16 04:45:46;;;;;;;33.42;30.27;;;18.00;99.90;;;;;;5038451;28;20049;-75
2022/08/16 04:48:16;;;;;;;34.63;31.45;;;18.10;99.90;;;;;;5002144;28;20052;-75
2022/08/16 04:50:50;;;;;;;35.75;32.42;;;18.10;99.90;;;;;;5027159;28;20050;-75
2022/08/16 04:53:19;;;;;;;35.03;31.85;;;18.10;99.90;;;;;;5005915;28;20052;-75
2022/08/16 04:55:48;;;;;;;35.35;32.15;;;18.10;99.90;;;;;;4991811;28;20631;-75
2022/08/16 04:58:15;;;;;;;35.63;32.53;;;18.10;99.90;;;;;;5001260;28;20037;-74
2022/08/16 05:00:41;;;;;;;37.60;33.92;;;18.20;99.90;;;;;;5002349;28;20063;-74
2022/08/16 05:03:12;;;;;;;35.78;32.55;;;18.20;99.90;;;;;;5011353;28;20052;-74
2022/08/16 05:05:47;;;;;;;39.75;36.22;;;18.30;99.90;;;;;;5016877;28;20037;-74
2022/08/16 05:08:18;;;;;;;34.95;31.60;;;18.30;99.90;;;;;;5016509;28;20053;-74
2022/08/16 05:10:48;;;;;;;38.30;34.97;;;18.30;99.90;;;;;;5015771;28;20904;-74
2022/08/16 05:13:17;;;;;;;37.22;33.92;;;18.40;99.90;;;;;;4999784;28;20413;-74
2022/08/16 05:15:45;;;;;;;36.60;33.15;;;18.40;99.90;;;;;;4995287;28;20115;-74
2022/08/16 05:18:13;;;;;;;37.22;33.92;;;18.50;99.90;;;;;;5004647;28;20516;-74
2022/08/16 05:20:46;;;;;;;36.88;33.65;;;18.60;99.90;;;;;;5024355;28;20037;-74
2022/08/16 05:23:12;;;;;;;36.05;32.65;;;18.60;99.90;;;;;;4998886;28;20049;-74
2022/08/16 05:25:39;;;;;;;37.17;33.58;;;18.70;99.90;;;;;;5022015;28;20091;-74
2022/08/16 05:28:09;;;;;;;33.47;30.52;;;18.90;99.90;;;;;;5006010;28;20052;-74
2022/08/16 05:30:37;;;;;;;32.53;29.58;;;19.00;99.90;;;;;;5029757;28;20049;-74
2022/08/16 05:33:07;;;;;;;30.03;27.50;;;19.20;99.90;;;;;;5035657;28;20147;-72
2022/08/16 05:35:34;;;;;;;30.42;27.67;;;19.40;99.90;;;;;;5011985;28;20351;-73
2022/08/16 05:38:26;;;;;;;28.83;26.17;;;19.50;99.90;;;;;;5008755;28;20045;-75
2022/08/16 05:40:56;;;;;;;32.22;28.88;;;19.70;99.90;;;;;;5006051;28;20083;-75
2022/08/16 05:43:22;;;;;;;29.30;26.70;;;20.00;99.90;;;;;;5003717;28;20040;-75
2022/08/16 05:45:49;;;;;;;48.30;43.80;;;20.30;99.90;;;;;;5019258;28;20049;-74
2022/08/16 05:48:16;;;;;;;28.42;25.58;;;20.70;99.90;;;;;;5031999;28;20131;-75
2022/08/16 05:51:02;;;;;;;25.88;23.45;;;20.90;99.90;;;;;;5007527;28;20128;-75
2022/08/16 05:53:29;;;;;;;25.95;23.58;;;21.20;99.90;;;;;;5001958;28;20128;-75
2022/08/16 05:56:08;;;;;;;27.15;24.75;;;21.40;99.90;;;;;;5001019;28;20051;-75
2022/08/16 05:58:37;;;;;;;27.33;24.50;;;21.80;99.90;;;;;;5014675;28;20047;-75
2022/08/16 06:01:04;;;;;;;24.52;21.98;;;22.00;99.90;;;;;;5004409;28;20045;-75
2022/08/16 06:03:31;;;;;;;33.45;30.60;;;22.00;99.90;;;;;;5017058;28;20041;-75
2022/08/16 06:06:00;;;;;;;85.93;78.20;;;22.00;99.90;;;;;;5022133;28;20092;-75
2022/08/16 06:08:27;;;;;;;32.10;29.15;;;22.00;99.90;;;;;;5004820;28;20053;-75
2022/08/16 06:10:54;;;;;;;33.40;30.33;;;21.80;99.90;;;;;;5002753;28;20099;-75
2022/08/16 06:13:20;;;;;;;27.02;24.58;;;21.70;99.90;;;;;;4984965;28;20148;-75
2022/08/16 06:15:50;;;;;;;23.88;21.65;;;21.60;99.90;;;;;;4985395;28;20053;-75
2022/08/16 06:18:18;;;;;;;23.23;21.10;;;21.50;99.90;;;;;;5015991;28;20075;-74
2022/08/16 06:20:45;;;;;;;30.58;27.80;;;21.50;99.90;;;;;;4987348;28;20045;-76
2022/08/16 06:23:18;;;;;;;24.15;21.83;;;21.40;99.90;;;;;;5019281;28;20072;-76
2022/08/16 06:25:56;;;;;;;24.52;22.27;;;21.30;99.90;;;;;;5032240;28;20076;-77
2022/08/16 06:28:25;;;;;;;24.05;21.92;;;21.20;99.90;;;;;;5001794;28;20166;-76
2022/08/16 06:30:51;;;;;;;25.00;22.45;;;21.10;99.90;;;;;;5021034;28;20744;-76
2022/08/16 06:33:18;;;;;;;23.92;21.77;;;21.10;99.90;;;;;;5022170;28;20230;-76
2022/08/16 06:35:45;;;;;;;26.23;23.95;;;21.10;99.90;;;;;;5001689;28;20087;-75
2022/08/16 06:38:12;;;;;;;25.05;22.80;;;21.00;99.90;;;;;;4987086;28;20060;-76
2022/08/16 06:40:38;;;;;;;25.25;23.13;;;21.00;99.90;;;;;;5000313;28;20573;-75
2022/08/16 06:43:05;;;;;;;25.35;22.95;;;20.90;99.90;;;;;;5004610;28;20134;-73
2022/08/16 06:45:41;;;;;;;25.95;23.48;;;20.90;99.90;;;;;;5038173;28;20083;-73
2022/08/16 06:48:11;;;;;;;23.98;21.77;;;21.00;99.90;;;;;;5016013;28;20609;-76
2022/08/16 06:50:38;;;;;;;23.85;21.33;;;21.40;99.90;;;;;;4986265;28;20040;-76
2022/08/16 06:53:07;;;;;;;23.15;20.98;;;21.80;99.90;;;;;;5005135;28;20381;-76
2022/08/16 06:55:35;;;;;;;22.30;20.30;;;22.10;99.90;;;;;;5018304;28;20042;-76
2022/08/16 06:58:05;;;;;;;21.48;19.40;;;22.30;99.90;;;;;;5004231;28;20050;-76
2022/08/16 07:00:32;;;;;;;20.65;18.67;;;22.70;99.90;;;;;;4983387;28;20450;-76
2022/08/16 07:03:07;;;;;;;20.90;19.05;;;22.90;99.90;;;;;;5004548;28;20390;-75
2022/08/16 07:05:33;;;;;;;20.92;19.02;;;23.10;99.90;;;;;;5004373;28;20071;-77
2022/08/16 07:08:29;;;;;;;20.98;19.02;;;23.40;99.90;;;;;;5003232;28;20042;-75
2022/08/16 07:10:57;;;;;;;20.15;18.25;;;23.70;99.90;;;;;;4985451;28;20413;-75
2022/08/16 07:13:26;;;;;;;;;;;23.90;99.90;;;;;;4988385;28;20041;-74
2022/08/16 07:15:54;;;;;;;19.25;17.42;;;24.00;99.90;;;;;;5035430;28;19939;-74
2022/08/16 07:18:25;;;;;;;21.52;19.42;;;24.20;99.90;;;;;;5001492;28;20072;-73
2022/08/16 07:20:52;;;;;;;20.38;18.63;;;24.50;99.90;;;;;;5003270;28;20490;-75
2022/08/16 07:23:19;;;;;;;24.20;21.92;;;24.60;99.90;;;;;;5002705;28;20511;-75
2022/08/16 07:25:51;;;;;;;19.42;17.73;;;24.90;99.90;;;;;;5020406;28;20064;-76
2022/08/16 07:28:18;;;;;;;21.60;19.77;;;25.10;99.90;;;;;;4984424;28;20049;-76
2022/08/16 07:30:46;;;;;;;22.60;20.70;;;25.50;99.90;;;;;;5034890;28;20045;-76
2022/08/16 07:33:25;;;;;;;23.05;20.85;;;25.60;99.90;;;;;;5002306;28;20045;-76
2022/08/16 07:35:51;;;;;;;22.20;20.40;;;25.70;99.90;;;;;;5020153;28;20057;-76
2022/08/16 07:38:18;;;;;;;22.95;21.15;;;25.90;99.90;;;;;;4969557;28;20036;-76
2022/08/16 07:40:51;;;;;;;21.65;19.55;;;26.10;99.90;;;;;;4971611;28;20048;-75
2022/08/16 07:43:17;;;;;;;21.85;19.92;;;26.20;99.90;;;;;;5013517;28;20469;-76
2022/08/16 07:45:44;;;;;;;21.90;20.02;;;26.40;99.90;;;;;;5018659;28;20072;-74
2022/08/16 07:48:10;;;;;;;20.40;18.58;;;26.60;99.90;;;;;;5000354;28;20048;-76
2022/08/16 07:50:38;;;;;;;19.55;17.85;;;26.90;99.90;;;;;;4985852;28;20049;-75
2022/08/16 07:53:04;;;;;;;20.90;19.10;;;27.20;99.90;;;;;;5033906;28;20052;-74
2022/08/16 07:55:30;;;;;;;21.10;19.17;;;27.30;99.90;;;;;;4986823;28;20057;-76
2022/08/16 07:57:57;;;;;;;18.40;16.88;;;27.50;99.90;;;;;;5002420;28;20091;-76
2022/08/16 08:00:23;;;;;;;18.42;16.83;;;27.60;99.90;;;;;;5019043;28;20624;-76
2022/08/16 08:02:49;;;;;;;20.83;18.80;;;27.50;99.90;;;;;;5002674;28;20048;-76
2022/08/16 08:05:23;;;;;;;20.48;18.65;;;27.60;99.90;;;;;;5027284;28;20045;-76
2022/08/16 08:07:52;;;;;;;17.65;16.23;;;28.10;99.90;;;;;;5034034;28;20094;-74
2022/08/16 08:10:20;;;;;;;18.35;16.85;;;28.10;99.90;;;;;;4986911;28;20037;-74
2022/08/16 08:12:48;;;;;;;19.02;17.42;;;28.20;99.90;;;;;;5016249;28;20048;-74
2022/08/16 08:15:16;;;;;;;19.73;17.93;;;28.20;99.90;;;;;;5017348;28;20708;-76
2022/08/16 08:17:43;;;;;;;19.60;17.58;;;28.10;99.90;;;;;;5018125;28;20041;-72
2022/08/16 08:20:15;;;;;;;19.55;17.85;;;27.70;99.90;;;;;;4996770;28;20052;-72
2022/08/16 08:22:47;;;;;;;18.63;16.92;;;27.70;99.90;;;;;;5018997;28;20056;-78
2022/08/16 08:25:15;;;;;;;20.15;18.45;;;27.80;99.90;;;;;;5017903;28;20116;-78
2022/08/16 08:27:41;;;;;;;20.23;18.13;;;28.10;99.90;;;;;;5002066;28;20071;-76
2022/08/16 08:30:09;;;;;;;18.98;17.38;;;28.00;99.90;;;;;;5003113;28;20045;-80
2022/08/16 08:32:36;;;;;;;19.08;17.45;;;28.10;99.90;;;;;;5017736;28;20087;-79
2022/08/16 08:35:04;;;;;;;19.70;17.95;;;28.20;99.60;;;;;;4986357;28;20051;-78
2022/08/16 08:37:35;;;;;;;17.90;16.40;;;28.10;98.60;;;;;;5016074;28;20107;-79
2022/08/16 08:40:09;;;;;;;17.03;15.53;;;28.30;98.70;;;;;;5019366;28;21052;-79
2022/08/16 08:42:36;;;;;;;18.50;16.83;;;28.80;97.80;;;;;;5016188;28;20099;-79
2022/08/16 08:45:04;;;;;;;18.98;16.98;;;28.70;97.90;;;;;;5019060;28;20142;-79
2022/08/16 08:47:30;;;;;;;18.80;17.02;;;29.20;97.50;;;;;;5016737;28;20049;-79
2022/08/16 08:49:57;;;;;;;18.17;16.30;;;29.20;95.40;;;;;;5002866;28;20064;-79
2022/08/16 08:52:26;;;;;;;17.35;15.88;;;29.40;95.80;;;;;;4985957;28;20560;-79
2022/08/16 08:54:52;;;;;;;19.27;17.55;;;29.50;95.00;;;;;;5034152;28;20045;-79
2022/08/16 08:57:19;;;;;;;19.48;17.77;;;29.40;93.10;;;;;;5000110;28;20136;-77
2022/08/16 09:00:11;;;;;;;16.40;13.98;;;29.50;93.40;;;;;;4999575;28;20347;-79
2022/08/16 09:02:38;;;;;;;17.30;15.75;;;29.80;94.10;;;;;;5001578;28;20039;-79
2022/08/16 09:05:05;;;;;;;16.77;15.25;;;30.00;93.30;;;;;;5018963;28;20219;-79
2022/08/16 09:07:31;;;;;;;16.35;14.77;;;30.00;91.50;;;;;;4985002;28;20042;-79
2022/08/16 09:09:58;;;;;;;17.05;14.82;;;30.30;90.60;;;;;;4964089;28;20055;-79
2022/08/16 09:12:25;;;;;;;16.30;14.80;;;30.40;90.80;;;;;;5014104;28;20763;-79
2022/08/16 09:14:58;;;;;;;17.13;15.65;;;30.50;89.10;;;;;;5019465;28;20103;-79
2022/08/16 09:17:27;;;;;;;18.58;14.70;;;30.80;86.90;;;;;;4986746;28;20073;-80
2022/08/16 09:19:56;;;;;;;15.45;13.82;;;31.10;82.90;;;;;;5031710;28;20071;-80
2022/08/16 09:22:25;;;;;;;15.80;14.30;;;31.10;85.20;;;;;;5018688;28;20041;-80
2022/08/16 09:24:51;;;;;;;17.48;15.88;;;31.30;81.40;;;;;;5000780;28;20065;-79
2022/08/16 09:27:18;;;;;;;16.20;14.70;;;31.00;81.60;;;;;;4983235;28;20568;-81
2022/08/16 09:29:44;;;;;;;20.08;18.08;;;31.10;79.40;;;;;;4966265;28;20052;-83
2022/08/16 09:32:10;;;;;;;12.88;11.70;;;30.90;75.60;;;;;;5000672;28;20079;-81
2022/08/16 09:34:37;;;;;;;11.27;9.35;;;31.30;71.30;;;;;;5000889;28;20041;-80
2022/08/16 09:37:03;;;;;;;11.50;9.15;;;31.20;65.20;;;;;;4987833;28;20045;-80
2022/08/16 09:39:29;;;;;;;9.45;7.63;;;31.20;62.20;;;;;;5048221;28;20045;-80
2022/08/16 09:41:58;;;;;;;10.13;7.45;;;31.30;61.30;;;;;;5001602;28;20047;-78
2022/08/16 09:44:27;;;;;;;9.02;8.13;;;31.20;59.10;;;;;;5007787;28;20046;-78
2022/08/16 09:46:54;;;;;;;10.55;7.82;;;31.10;59.40;;;;;;5000634;28;20048;-78
2022/08/16 09:49:21;;;;;;;9.32;7.53;;;31.30;59.00;;;;;;5029897;28;20037;-79
2022/08/16 09:51:53;;;;;;;9.48;7.13;;;31.60;58.10;;;;;;5004044;28;20048;-78
2022/08/16 09:54:21;;;;;;;10.52;7.53;;;31.70;56.60;;;;;;5016423;28;20143;-78
2022/08/16 09:56:48;;;;;;;8.77;7.40;;;31.60;56.40;;;;;;5025104;28;20147;-79
2022/08/16 09:59:19;;;;;;;8.00;7.25;;;31.50;57.90;;;;;;4994867;28;21384;-80
2022/08/16 10:01:47;;;;;;;10.23;8.20;;;32.10;57.10;;;;;;5007127;28;20535;-80
2022/08/16 10:04:16;;;;;;;9.60;8.57;;;32.20;55.80;;;;;;5040413;28;20076;-80
2022/08/16 10:06:44;;;;;;;11.43;10.27;;;32.60;55.50;;;;;;5039707;28;20928;-81
2022/08/16 10:09:13;;;;;;;11.15;10.10;;;32.50;55.20;;;;;;5037133;28;20714;-80
2022/08/16 10:14:29;;;;;;;11.07;6.88;;;32.50;56.70;;;;;;5005640;28;20043;-80
2022/08/16 10:17:01;;;;;;;8.05;5.85;;;32.20;55.50;;;;;;5021959;28;20045;-80
2022/08/16 10:19:27;;;;;;;6.70;5.93;;;32.60;53.10;;;;;;5003146;28;20063;-80
2022/08/16 10:21:57;;;;;;;5.47;4.70;;;33.00;52.40;;;;;;5001756;28;20053;-79
2022/08/16 10:24:24;;;;;;;6.03;4.13;;;32.90;51.30;;;;;;5003771;28;20053;-79
2022/08/16 10:26:51;;;;;;;6.18;5.57;;;33.20;51.60;;;;;;5002189;28;20045;-80
2022/08/16 10:29:19;;;;;;;6.35;4.63;;;33.30;50.50;;;;;;5036019;28;20041;-80
2022/08/16 10:31:45;;;;;;;8.23;5.60;;;33.30;51.10;;;;;;5023507;28;20122;-80
2022/08/16 10:34:14;;;;;;;10.38;6.63;;;33.20;50.60;;;;;;5003601;28;20044;-80
2022/08/16 10:36:41;;;;;;;9.20;5.70;;;33.30;51.40;;;;;;4991401;28;20051;-81
2022/08/16 10:39:07;;;;;;;8.07;5.00;;;33.40;51.30;;;;;;4969483;28;20152;-81
2022/08/16 10:41:33;;;;;;;10.82;7.88;;;33.50;49.90;;;;;;4990550;28;20049;-80
2022/08/16 10:44:11;;;;;;;;;;;;;;;;;;;;;
2022/08/16 10:47:10;;;;;;;10.18;6.00;;;33.50;49.20;;;;;;5013236;28;20076;-79
2022/08/16 10:49:38;;;;;;;8.57;7.75;;;33.50;49.90;;;;;;5005571;28;20186;-79
2022/08/16 10:52:05;;;;;;;6.90;6.20;;;33.80;50.90;;;;;;5017517;28;20045;-79
2022/08/16 10:54:31;;;;;;;7.22;5.25;;;34.20;50.30;;;;;;5001895;28;20750;-80
2022/08/16 10:56:59;;;;;;;8.45;5.60;;;34.20;49.30;;;;;;5020522;28;20057;-80
2022/08/16 10:59:28;;;;;;;8.57;6.68;;;34.20;48.30;;;;;;5020297;28;20041;-80
2022/08/16 11:01:54;;;;;;;8.60;6.13;;;34.20;47.80;;;;;;5002974;28;20052;-80
2022/08/16 11:04:20;;;;;;;8.55;7.47;;;34.30;47.50;;;;;;4988817;28;20037;-80
2022/08/16 11:06:47;;;;;;;6.97;6.22;;;34.70;47.70;;;;;;5003051;28;20049;-80
2022/08/16 11:09:13;;;;;;;7.20;5.03;;;34.50;48.10;;;;;;5019773;28;20068;-80
2022/08/16 11:11:39;;;;;;;5.95;5.35;;;34.10;48.50;;;;;;4983027;28;20044;-80
2022/08/16 11:14:05;;;;;;;8.10;6.07;;;34.00;48.00;;;;;;5019198;28;20041;-80
2022/08/16 11:16:32;;;;;;;6.68;5.93;;;34.10;47.80;;;;;;5014951;28;20079;-79
2022/08/16 11:18:58;;;;;;;7.88;5.57;;;33.60;48.20;;;;;;4988708;28;20041;-77
2022/08/16 11:21:25;;;;;;;8.82;5.00;;;34.00;49.20;;;;;;4972315;28;20040;-83
2022/08/16 11:23:52;;;;;;;8.27;6.43;;;34.00;48.10;;;;;;5002761;28;20071;-80
2022/08/16 11:26:19;;;;;;;10.90;5.07;;;34.00;48.10;;;;;;5016294;28;20041;-80
2022/08/16 11:28:47;;;;;;;6.53;5.07;;;34.10;47.30;;;;;;5002524;28;20083;-80
2022/08/16 11:31:13;;;;;;;7.78;5.57;;;34.30;46.90;;;;;;5002227;28;20041;-81
2022/08/16 11:33:40;;;;;;;6.78;5.40;;;34.50;47.20;;;;;;4973977;28;20045;-80
2022/08/16 11:36:06;;;;;;;9.55;5.07;;;34.40;47.40;;;;;;4998191;28;20091;-80
2022/08/16 11:38:33;;;;;;;8.45;6.32;;;35.10;47.40;;;;;;5010949;28;20049;-81
2022/08/16 11:41:00;;;;;;;8.32;5.57;;;35.20;46.40;;;;;;5017112;28;21224;-81
2022/08/16 11:43:30;;;;;;;6.63;4.43;;;35.10;46.60;;;;;;5017310;28;20069;-81
2022/08/16 11:45:58;;;;;;;7.22;5.68;;;35.30;45.30;;;;;;5020159;28;20052;-81
2022/08/16 11:48:29;;;;;;;7.45;4.10;;;35.10;45.10;;;;;;5002019;28;20041;-81
2022/08/16 11:50:56;;;;;;;6.10;4.53;;;34.70;44.90;;;;;;5031874;28;20147;-81
2022/08/16 11:53:23;;;;;;;6.07;4.55;;;34.80;45.10;;;;;;5012870;28;20135;-81
2022/08/16 11:55:52;;;;;;;6.25;4.75;;;34.90;45.00;;;;;;4999889;28;20453;-80
2022/08/16 11:58:18;;;;;;;6.88;4.50;;;34.90;45.00;;;;;;5002016;28;20440;-81
2022/08/16 12:00:45;;;;;;;7.03;4.70;;;35.30;44.60;;;;;;4986192;28;20192;-81
2022/08/16 12:03:12;;;;;;;7.13;4.63;;;35.40;44.40;;;;;;4986424;28;20169;-81
2022/08/16 12:05:42;;;;;;;6.18;4.20;;;35.20;43.80;;;;;;5017200;28;20481;-80
2022/08/16 12:08:09;;;;;;;8.52;5.72;;;35.10;44.20;;;;;;5033291;28;20389;-81
2022/08/16 12:10:38;;;;;;;7.90;4.40;;;35.50;44.60;;;;;;4983587;28;20140;-80
2022/08/16 12:13:06;;;;;;;5.68;3.60;;;35.40;44.30;;;;;;5002242;28;20058;-81
2022/08/16 12:15:33;;;;;;;5.53;3.67;;;35.30;43.70;;;;;;4999899;28;20178;-80
2022/08/16 12:17:59;;;;;;;4.65;3.03;;;35.30;43.60;;;;;;4999308;28;20131;-80
2022/08/16 12:20:29;;;;;;;6.13;3.47;;;35.60;43.40;;;;;;5014975;28;20127;-80
2022/08/16 12:22:56;;;;;;;4.68;3.55;;;35.50;42.40;;;;;;5030375;28;20045;-81
2022/08/16 12:25:25;;;;;;;5.50;3.28;;;35.60;42.10;;;;;;5002507;28;20041;-80
2022/08/16 12:27:51;;;;;;;9.70;3.40;;;35.70;41.80;;;;;;5019390;28;20110;-80
2022/08/16 12:30:22;;;;;;;8.27;3.38;;;35.60;41.10;;;;;;4986124;28;20122;-81
2022/08/16 12:32:49;;;;;;;8.68;3.20;;;35.60;41.30;;;;;;5013499;28;20053;-81
2022/08/16 12:35:18;;;;;;;6.03;2.92;;;35.50;41.30;;;;;;4985869;28;20055;-81
2022/08/16 12:37:45;;;;;;;5.90;3.15;;;35.70;41.40;;;;;;4998953;28;20064;-81
2022/08/16 12:40:23;;;;;;;7.05;2.83;;;35.40;41.80;;;;;;5002744;28;20064;-81
2022/08/16 12:42:51;;;;;;;5.75;2.70;;;35.40;41.80;;;;;;5034357;28;20040;-81